createdAt,value
2017-06-09T00:00:45.705Z,87.54
2017-06-09T00:05:43.474Z,87.78
2017-06-09T00:10:39.055Z,88.45
2017-06-09T00:15:34.961Z,87.21
2017-06-09T00:20:30.970Z,87.78
2017-06-09T00:25:26.544Z,87.68
2017-06-09T00:30:22.141Z,87.11
2017-06-09T00:35:19.094Z,87.40
2017-06-09T00:40:14.762Z,87.78
2017-06-09T00:45:10.532Z,87.68
2017-06-09T00:50:07.527Z,88.70
2017-06-09T00:55:03.173Z,87.98
2017-06-09T00:59:59.100Z,88.60
2017-06-09T01:04:54.882Z,88.70
2017-06-09T01:09:51.100Z,88.51
2017-06-09T01:14:47.135Z,89.47
2017-06-09T01:19:42.991Z,89.08
2017-06-09T01:24:38.877Z,89.18
2017-06-09T01:29:34.924Z,89.18
2017-06-09T01:34:30.961Z,89.27
2017-06-09T01:39:26.905Z,89.47
2017-06-09T01:44:22.911Z,89.75
2017-06-09T01:49:18.594Z,90.28
2017-06-09T01:54:15.056Z,90.67
2017-06-09T01:59:10.904Z,90.14
2017-06-09T02:04:08.026Z,90.71
2017-06-09T02:09:03.543Z,90.47
2017-06-09T02:13:59.617Z,90.86
2017-06-09T02:18:55.540Z,90.00
2017-06-09T02:23:52.417Z,90.28
2017-06-09T02:28:48.503Z,90.38
2017-06-09T02:33:45.327Z,90.19
2017-06-09T02:38:40.918Z,90.47
2017-06-09T02:43:36.755Z,90.28
2017-06-09T02:48:32.782Z,90.86
2017-06-09T02:53:28.652Z,90.57
2017-06-09T02:58:24.565Z,90.47
2017-06-09T03:03:21.800Z,90.57
2017-06-09T03:08:17.642Z,90.47
2017-06-09T03:13:14.927Z,90.19
2017-06-09T03:18:11.158Z,90.38
2017-06-09T03:23:07.555Z,90.28
2017-06-09T03:28:03.445Z,90.38
2017-06-09T03:32:59.760Z,90.19
2017-06-09T03:37:55.687Z,90.67
2017-06-09T03:42:51.639Z,90.19
2017-06-09T03:47:47.435Z,90.57
2017-06-09T03:52:43.435Z,90.47
2017-06-09T03:57:39.458Z,90.23
2017-06-09T04:02:36.667Z,90.00
2017-06-09T04:07:32.317Z,88.94
2017-06-09T04:12:28.275Z,88.84
2017-06-09T04:17:25.410Z,88.94
2017-06-09T04:22:22.402Z,90.09
2017-06-09T04:27:18.251Z,89.51
2017-06-09T04:32:15.456Z,87.84
2017-06-09T04:37:11.946Z,83.45
2017-06-09T04:42:08.729Z,79.60
2017-06-09T04:47:06.807Z,76.01
2017-06-09T04:52:03.160Z,74.03
2017-06-09T04:56:59.287Z,74.96
2017-06-09T05:01:55.544Z,76.56
2017-06-09T05:06:52.326Z,77.90
2017-06-09T05:11:47.883Z,79.21
2017-06-09T05:16:43.807Z,79.94
2017-06-09T05:21:39.997Z,78.44
2017-06-09T05:26:37.686Z,78.77
2017-06-09T05:31:34.088Z,77.75
2017-06-09T05:36:30.267Z,76.78
2017-06-09T05:41:27.240Z,78.00
2017-06-09T05:46:23.613Z,78.15
2017-06-09T05:51:19.085Z,79.79
2017-06-09T05:56:15.164Z,79.98
2017-06-09T06:01:10.819Z,80.36
2017-06-09T06:06:06.441Z,80.84
2017-06-09T06:11:02.651Z,81.09
2017-06-09T06:15:58.908Z,83.01
2017-06-09T06:20:54.708Z,81.67
2017-06-09T06:25:51.029Z,80.75
2017-06-09T06:30:47.302Z,80.84
2017-06-09T06:35:43.350Z,81.52
2017-06-09T06:40:39.833Z,80.84
2017-06-09T06:45:37.049Z,81.17
2017-06-09T06:50:33.010Z,79.25
2017-06-09T06:55:28.818Z,80.60
2017-06-09T07:00:24.464Z,81.27
2017-06-09T07:05:20.283Z,81.46
2017-06-09T07:10:16.261Z,83.53
2017-06-09T07:15:12.310Z,83.29
2017-06-09T07:20:09.023Z,81.46
2017-06-09T07:25:05.109Z,80.63
2017-06-09T07:30:02.338Z,80.48
2017-06-09T07:34:58.249Z,76.34
2017-06-09T07:39:54.504Z,77.01
2017-06-09T07:44:50.648Z,74.99
2017-06-09T07:49:46.793Z,73.55
2017-06-09T07:54:42.834Z,75.86
2017-06-09T07:59:38.651Z,77.50
2017-06-09T08:04:34.804Z,76.06
2017-06-09T08:09:30.729Z,76.06
2017-06-09T08:14:26.898Z,76.34
2017-06-09T08:19:23.931Z,76.86
2017-06-09T08:24:19.935Z,75.71
2017-06-09T08:29:15.797Z,72.63
2017-06-09T08:34:11.739Z,72.05
2017-06-09T08:39:08.674Z,73.97
2017-06-09T08:44:04.488Z,74.16
2017-06-09T08:49:00.741Z,76.18
2017-06-09T08:53:57.300Z,76.82
2017-06-09T08:58:53.023Z,78.85
2017-06-09T09:03:48.895Z,79.52
2017-06-09T09:08:44.900Z,81.02
2017-06-09T09:13:41.695Z,81.79
2017-06-09T09:18:37.442Z,80.77
2017-06-09T09:23:34.803Z,81.93
2017-06-09T09:28:30.466Z,82.41
2017-06-09T09:33:26.613Z,83.72
2017-06-09T09:38:22.314Z,84.19
2017-06-09T09:43:19.210Z,84.87
2017-06-09T09:48:14.871Z,85.06
2017-06-09T09:53:11.367Z,86.27
2017-06-09T09:58:07.376Z,86.46
2017-06-09T10:03:03.162Z,87.04
2017-06-09T10:08:00.751Z,88.10
2017-06-09T10:12:57.485Z,88.39
2017-06-09T10:17:53.339Z,89.98
2017-06-09T10:22:51.307Z,91.95
2017-06-09T10:27:46.469Z,92.43
2017-06-09T10:32:42.053Z,93.25
2017-06-09T10:37:37.634Z,94.40
2017-06-09T10:42:34.239Z,94.35
2017-06-09T10:47:31.801Z,95.60
2017-06-09T10:52:26.983Z,96.32
2017-06-09T10:57:22.624Z,97.28
2017-06-09T11:02:18.247Z,99.99
2017-06-09T11:07:15.049Z,99.99
2017-06-09T11:12:11.628Z,99.99
2017-06-09T11:17:07.026Z,99.99
2017-06-09T11:22:04.081Z,99.99
2017-06-09T11:26:59.744Z,99.99
2017-06-09T11:31:55.599Z,99.99
2017-06-09T11:36:53.666Z,99.99
2017-06-09T11:41:48.804Z,99.99
2017-06-09T11:46:46.670Z,99.99
2017-06-09T11:51:42.355Z,99.99
2017-06-09T11:56:38.204Z,99.99
2017-06-09T12:01:35.406Z,99.99
2017-06-09T12:06:32.397Z,99.99
2017-06-09T12:11:28.913Z,99.99
2017-06-09T12:16:25.063Z,99.99
2017-06-09T12:21:21.153Z,99.99
2017-06-09T12:31:26.258Z,99.99
2017-06-09T12:36:21.555Z,99.99
2017-06-09T12:41:17.932Z,99.99
2017-06-09T12:46:14.382Z,99.99
2017-06-09T12:51:10.092Z,99.99
2017-06-09T12:56:06.129Z,99.99
2017-06-09T13:01:02.191Z,99.99
2017-06-09T13:05:57.947Z,99.99
2017-06-09T13:10:55.469Z,99.99
2017-06-09T13:15:53.358Z,99.44
2017-06-09T13:20:49.953Z,96.03
2017-06-09T13:25:45.003Z,96.22
2017-06-09T13:30:43.023Z,94.92
2017-06-09T13:35:40.082Z,93.68
2017-06-09T13:40:36.720Z,91.46
2017-06-09T13:45:33.832Z,93.10
2017-06-09T13:50:29.529Z,93.10
2017-06-09T13:55:25.450Z,90.41
2017-06-09T14:00:22.833Z,88.14
2017-06-09T14:05:19.207Z,87.66
2017-06-09T14:10:14.305Z,88.14
2017-06-09T14:15:09.467Z,87.62
2017-06-09T14:20:04.722Z,87.71
2017-06-09T14:25:00.793Z,83.33
2017-06-09T14:29:56.205Z,82.56
2017-06-09T14:34:51.822Z,83.62
2017-06-09T14:39:47.812Z,81.12
2017-06-09T14:44:45.054Z,81.79
2017-06-09T14:49:41.414Z,81.40
2017-06-09T14:54:37.807Z,81.60
2017-06-09T14:59:33.941Z,76.88
2017-06-09T15:04:29.845Z,78.03
2017-06-09T15:09:25.654Z,77.26
2017-06-09T15:14:21.454Z,78.23
2017-06-09T15:19:17.207Z,76.78
2017-06-09T15:24:13.055Z,76.44
2017-06-09T15:29:08.916Z,74.86
2017-06-09T15:34:05.040Z,75.24
2017-06-09T15:39:01.034Z,73.32
2017-06-09T15:43:57.490Z,67.19
2017-06-09T15:48:53.502Z,61.52
2017-06-09T15:53:50.760Z,61.80
2017-06-09T15:58:46.283Z,61.80
2017-06-09T16:03:42.241Z,57.79
2017-06-09T16:08:38.757Z,57.18
2017-06-09T16:13:34.984Z,58.17
2017-06-09T16:18:30.953Z,57.12
2017-06-09T16:23:27.810Z,57.31
2017-06-09T16:28:23.316Z,54.58
2017-06-09T16:33:19.154Z,55.74
2017-06-09T16:38:14.956Z,55.07
2017-06-09T16:43:11.234Z,57.28
2017-06-09T16:48:07.045Z,54.78
2017-06-09T16:53:03.072Z,53.33
2017-06-09T16:57:59.446Z,54.36
2017-06-09T17:02:55.306Z,55.62
2017-06-09T17:07:52.084Z,55.52
2017-06-09T17:12:49.791Z,55.43
2017-06-09T17:17:45.696Z,55.62
2017-06-09T17:22:41.447Z,55.62
2017-06-09T17:27:37.654Z,55.43
2017-06-09T17:32:34.974Z,56.29
2017-06-09T17:37:30.803Z,56.77
2017-06-09T17:42:26.753Z,56.67
2017-06-09T17:47:22.456Z,57.54
2017-06-09T17:52:18.418Z,57.83
2017-06-09T17:57:14.272Z,59.17
2017-06-09T18:02:10.114Z,59.92
2017-06-09T18:07:06.929Z,60.69
2017-06-09T18:12:02.374Z,60.78
2017-06-09T18:16:58.115Z,62.41
2017-06-09T18:21:55.161Z,62.90
2017-06-09T18:26:50.722Z,64.34
2017-06-09T18:31:48.675Z,65.46
2017-06-09T18:36:44.382Z,66.04
2017-06-09T18:41:40.505Z,65.17
2017-06-09T18:46:36.136Z,65.17
2017-06-09T18:51:32.385Z,65.43
2017-06-09T18:56:28.565Z,66.20
2017-06-09T19:01:25.093Z,65.91
2017-06-09T19:06:21.603Z,66.58
2017-06-09T19:11:17.251Z,66.84
2017-06-09T19:16:12.673Z,67.51
2017-06-09T19:21:09.130Z,68.28
2017-06-09T19:26:06.818Z,68.76
2017-06-09T19:31:02.199Z,69.97
2017-06-09T19:35:58.608Z,70.74
2017-06-09T19:40:55.424Z,71.03
2017-06-09T19:45:51.929Z,71.98
2017-06-09T19:50:47.609Z,73.33
2017-06-09T19:55:43.736Z,73.24
2017-06-09T20:00:39.752Z,74.83
2017-06-09T20:05:35.219Z,75.50
2017-06-09T20:10:31.434Z,74.83
2017-06-09T20:15:27.550Z,75.70
2017-06-09T20:20:23.266Z,75.89
2017-06-09T20:25:19.106Z,76.75
2017-06-09T20:30:15.141Z,77.61
2017-06-09T20:35:10.938Z,78.72
2017-06-09T20:40:06.772Z,78.44
2017-06-09T20:45:02.839Z,79.30
2017-06-09T20:49:58.849Z,80.07
2017-06-09T20:54:54.427Z,80.07
2017-06-09T20:59:50.401Z,80.22
2017-06-09T21:04:47.115Z,80.79
2017-06-09T21:09:42.810Z,81.46
2017-06-09T21:14:38.371Z,81.95
2017-06-09T21:19:34.439Z,82.52
2017-06-09T21:24:30.206Z,83.48
2017-06-09T21:29:26.154Z,83.19
2017-06-09T21:34:23.025Z,83.44
2017-06-09T21:39:18.810Z,83.53
2017-06-09T21:44:14.824Z,85.06
2017-06-09T21:49:10.429Z,84.97
2017-06-09T21:54:06.476Z,85.54
2017-06-09T21:59:02.528Z,85.83
2017-06-09T22:03:58.177Z,85.54
2017-06-09T22:08:55.440Z,85.54
2017-06-09T22:13:50.984Z,85.64
2017-06-09T22:18:47.958Z,85.93
2017-06-09T22:23:43.665Z,85.25
2017-06-09T22:28:39.488Z,86.02
2017-06-09T22:33:36.098Z,85.64
2017-06-09T22:38:31.668Z,86.41
2017-06-09T22:43:27.507Z,86.31
2017-06-09T22:48:23.340Z,87.46
2017-06-09T22:53:19.952Z,87.84
2017-06-09T22:58:15.391Z,87.84
2017-06-09T23:03:10.957Z,87.51
2017-06-09T23:08:06.974Z,87.99
2017-06-09T23:13:02.848Z,88.76
2017-06-09T23:17:58.579Z,88.37
2017-06-09T23:22:54.941Z,87.61
2017-06-09T23:27:50.726Z,88.47
2017-06-09T23:32:46.737Z,89.23
2017-06-09T23:37:42.402Z,89.33
2017-06-09T23:42:38.289Z,89.19
2017-06-09T23:47:34.346Z,90.05
2017-06-09T23:52:30.499Z,90.05
2017-06-09T23:57:26.235Z,90.72
